sensor_id;sensor_type;location;lat;lon;timestamp;P1;durP1;ratioP1;P2;durP2;ratioP2
1412;SDS011;701;52.526;13.408;2023-10-31T00:02:15;12.25;;;3.42;;
1412;SDS011;701;52.526;13.408;2023-10-31T00:04:41;9.30;;;3.78;;
1412;SDS011;701;52.526;13.408;2023-10-31T00:07:06;9.23;;;3.88;;
1412;SDS011;701;52.526;13.408;2023-10-31T00:09:32;10.50;;;3.50;;
1412;SDS011;701;52.526;13.408;2023-10-31T00:11:58;15.55;;;3.88;;
1412;SDS011;701;52.526;13.408;2023-10-31T00:14:24;11.07;;;4.18;;
1412;SDS011;701;52.526;13.408;2023-10-31T00:16:50;11.88;;;3.90;;
1412;SDS011;701;52.526;13.408;2023-10-31T00:19:16;11.40;;;3.70;;
1412;SDS011;701;52.526;13.408;2023-10-31T00:21:41;12.85;;;3.95;;
1412;SDS011;701;52.526;13.408;2023-10-31T00:24:07;16.50;;;3.90;;
1412;SDS011;701;52.526;13.408;2023-10-31T00:26:33;8.82;;;3.60;;
1412;SDS011;701;52.526;13.408;2023-10-31T00:28:59;8.90;;;3.90;;
1412;SDS011;701;52.526;13.408;2023-10-31T00:31:24;10.38;;;3.90;;
1412;SDS011;701;52.526;13.408;2023-10-31T00:33:50;11.95;;;4.40;;
1412;SDS011;701;52.526;13.408;2023-10-31T00:36:16;8.53;;;3.87;;
1412;SDS011;701;52.526;13.408;2023-10-31T00:38:42;11.27;;;3.85;;
1412;SDS011;701;52.526;13.408;2023-10-31T00:41:07;10.10;;;4.10;;
1412;SDS011;701;52.526;13.408;2023-10-31T00:43:33;10.75;;;4.00;;
1412;SDS011;701;52.526;13.408;2023-10-31T00:45:59;11.03;;;4.00;;
1412;SDS011;701;52.526;13.408;2023-10-31T00:48:27;10.82;;;3.90;;
1412;SDS011;701;52.526;13.408;2023-10-31T00:50:53;12.23;;;4.20;;
1412;SDS011;701;52.526;13.408;2023-10-31T00:53:19;9.57;;;3.50;;
1412;SDS011;701;52.526;13.408;2023-10-31T00:55:45;7.65;;;3.70;;
1412;SDS011;701;52.526;13.408;2023-10-31T00:58:12;9.27;;;3.77;;
1412;SDS011;701;52.526;13.408;2023-10-31T01:00:38;7.68;;;3.70;;
1412;SDS011;701;52.526;13.408;2023-10-31T01:03:03;10.63;;;3.90;;
1412;SDS011;701;52.526;13.408;2023-10-31T01:05:29;9.07;;;4.20;;
1412;SDS011;701;52.526;13.408;2023-10-31T01:07:55;13.40;;;4.00;;
1412;SDS011;701;52.526;13.408;2023-10-31T01:10:21;8.60;;;3.20;;
1412;SDS011;701;52.526;13.408;2023-10-31T01:12:47;8.15;;;3.60;;
1412;SDS011;701;52.526;13.408;2023-10-31T01:15:13;10.73;;;4.00;;
1412;SDS011;701;52.526;13.408;2023-10-31T01:17:39;12.00;;;3.93;;
1412;SDS011;701;52.526;13.408;2023-10-31T01:20:05;10.75;;;3.70;;
1412;SDS011;701;52.526;13.408;2023-10-31T01:22:31;12.77;;;5.35;;
1412;SDS011;701;52.526;13.408;2023-10-31T01:24:57;10.67;;;4.10;;
1412;SDS011;701;52.526;13.408;2023-10-31T01:27:23;12.70;;;4.15;;
1412;SDS011;701;52.526;13.408;2023-10-31T01:29:48;9.90;;;3.97;;
1412;SDS011;701;52.526;13.408;2023-10-31T01:32:14;11.00;;;4.20;;
1412;SDS011;701;52.526;13.408;2023-10-31T01:34:40;9.90;;;4.13;;
1412;SDS011;701;52.526;13.408;2023-10-31T01:37:06;9.90;;;4.00;;
1412;SDS011;701;52.526;13.408;2023-10-31T01:39:31;10.37;;;4.00;;
1412;SDS011;701;52.526;13.408;2023-10-31T01:41:57;12.23;;;4.50;;
1412;SDS011;701;52.526;13.408;2023-10-31T01:44:23;14.77;;;4.65;;
1412;SDS011;701;52.526;13.408;2023-10-31T01:46:50;10.87;;;3.93;;
1412;SDS011;701;52.526;13.408;2023-10-31T01:49:16;11.40;;;4.22;;
1412;SDS011;701;52.526;13.408;2023-10-31T01:51:42;9.98;;;4.05;;
1412;SDS011;701;52.526;13.408;2023-10-31T01:54:09;9.95;;;4.50;;
1412;SDS011;701;52.526;13.408;2023-10-31T01:56:35;9.32;;;4.25;;
1412;SDS011;701;52.526;13.408;2023-10-31T01:59:03;9.93;;;4.47;;
1412;SDS011;701;52.526;13.408;2023-10-31T02:01:32;12.00;;;4.75;;
1412;SDS011;701;52.526;13.408;2023-10-31T02:04:01;9.60;;;4.43;;
1412;SDS011;701;52.526;13.408;2023-10-31T02:06:28;10.07;;;4.13;;
1412;SDS011;701;52.526;13.408;2023-10-31T02:08:55;9.45;;;4.25;;
1412;SDS011;701;52.526;13.408;2023-10-31T02:11:21;11.65;;;4.95;;
1412;SDS011;701;52.526;13.408;2023-10-31T02:13:47;9.02;;;4.38;;
1412;SDS011;701;52.526;13.408;2023-10-31T02:16:13;13.37;;;4.43;;
1412;SDS011;701;52.526;13.408;2023-10-31T02:18:39;10.65;;;4.40;;
1412;SDS011;701;52.526;13.408;2023-10-31T02:21:05;9.43;;;4.40;;
1412;SDS011;701;52.526;13.408;2023-10-31T02:23:30;9.07;;;4.37;;
1412;SDS011;701;52.526;13.408;2023-10-31T02:25:56;9.48;;;4.50;;
1412;SDS011;701;52.526;13.408;2023-10-31T02:28:22;10.53;;;4.43;;
1412;SDS011;701;52.526;13.408;2023-10-31T02:30:52;9.73;;;4.28;;
1412;SDS011;701;52.526;13.408;2023-10-31T02:33:20;9.93;;;4.45;;
1412;SDS011;701;52.526;13.408;2023-10-31T02:35:46;11.57;;;4.43;;
1412;SDS011;701;52.526;13.408;2023-10-31T02:38:14;11.48;;;4.82;;
1412;SDS011;701;52.526;13.408;2023-10-31T02:40:40;11.75;;;4.72;;
1412;SDS011;701;52.526;13.408;2023-10-31T02:43:06;9.13;;;4.38;;
1412;SDS011;701;52.526;13.408;2023-10-31T02:45:32;11.45;;;5.00;;
1412;SDS011;701;52.526;13.408;2023-10-31T02:47:59;15.60;;;5.00;;
1412;SDS011;701;52.526;13.408;2023-10-31T02:50:25;9.97;;;4.40;;
1412;SDS011;701;52.526;13.408;2023-10-31T02:52:50;12.35;;;5.00;;
1412;SDS011;701;52.526;13.408;2023-10-31T02:55:16;11.97;;;5.43;;
1412;SDS011;701;52.526;13.408;2023-10-31T02:57:42;11.80;;;4.85;;
1412;SDS011;701;52.526;13.408;2023-10-31T03:00:08;14.60;;;4.80;;
1412;SDS011;701;52.526;13.408;2023-10-31T03:02:34;11.87;;;5.70;;
1412;SDS011;701;52.526;13.408;2023-10-31T03:05:00;9.88;;;4.25;;
1412;SDS011;701;52.526;13.408;2023-10-31T03:07:27;10.60;;;5.22;;
1412;SDS011;701;52.526;13.408;2023-10-31T03:09:52;16.43;;;5.07;;
1412;SDS011;701;52.526;13.408;2023-10-31T03:12:19;17.17;;;5.13;;
1412;SDS011;701;52.526;13.408;2023-10-31T03:14:45;12.35;;;4.95;;
1412;SDS011;701;52.526;13.408;2023-10-31T03:17:11;12.83;;;4.80;;
1412;SDS011;701;52.526;13.408;2023-10-31T03:19:36;16.77;;;5.60;;
1412;SDS011;701;52.526;13.408;2023-10-31T03:22:03;13.63;;;5.00;;
1412;SDS011;701;52.526;13.408;2023-10-31T03:24:29;11.43;;;5.00;;
1412;SDS011;701;52.526;13.408;2023-10-31T03:26:54;13.35;;;5.30;;
1412;SDS011;701;52.526;13.408;2023-10-31T03:29:20;13.93;;;5.03;;
1412;SDS011;701;52.526;13.408;2023-10-31T03:31:46;11.57;;;5.45;;
1412;SDS011;701;52.526;13.408;2023-10-31T03:34:12;10.07;;;5.28;;
1412;SDS011;701;52.526;13.408;2023-10-31T03:36:38;13.98;;;5.45;;
1412;SDS011;701;52.526;13.408;2023-10-31T03:39:03;11.00;;;4.90;;
1412;SDS011;701;52.526;13.408;2023-10-31T03:41:29;11.73;;;5.05;;
1412;SDS011;701;52.526;13.408;2023-10-31T03:43:55;11.55;;;5.07;;
1412;SDS011;701;52.526;13.408;2023-10-31T03:46:21;10.90;;;5.20;;
1412;SDS011;701;52.526;13.408;2023-10-31T03:48:47;12.30;;;5.63;;
1412;SDS011;701;52.526;13.408;2023-10-31T03:51:12;10.17;;;5.07;;
1412;SDS011;701;52.526;13.408;2023-10-31T03:53:38;12.55;;;5.15;;
1412;SDS011;701;52.526;13.408;2023-10-31T03:56:04;15.43;;;5.40;;
1412;SDS011;701;52.526;13.408;2023-10-31T03:58:30;10.95;;;4.90;;
1412;SDS011;701;52.526;13.408;2023-10-31T04:00:57;12.48;;;5.30;;
1412;SDS011;701;52.526;13.408;2023-10-31T04:03:22;12.00;;;5.63;;
1412;SDS011;701;52.526;13.408;2023-10-31T04:05:48;10.97;;;5.40;;
1412;SDS011;701;52.526;13.408;2023-10-31T04:08:15;10.73;;;5.30;;
1412;SDS011;701;52.526;13.408;2023-10-31T04:10:40;14.63;;;5.35;;
1412;SDS011;701;52.526;13.408;2023-10-31T04:13:06;9.70;;;4.80;;
1412;SDS011;701;52.526;13.408;2023-10-31T04:15:32;9.23;;;5.25;;
1412;SDS011;701;52.526;13.408;2023-10-31T04:17:59;10.73;;;5.22;;
1412;SDS011;701;52.526;13.408;2023-10-31T04:20:25;12.05;;;5.05;;
1412;SDS011;701;52.526;13.408;2023-10-31T04:22:51;12.23;;;5.53;;
1412;SDS011;701;52.526;13.408;2023-10-31T04:25:17;9.82;;;4.95;;
1412;SDS011;701;52.526;13.408;2023-10-31T04:27:42;9.20;;;4.83;;
1412;SDS011;701;52.526;13.408;2023-10-31T04:30:08;10.82;;;5.15;;
1412;SDS011;701;52.526;13.408;2023-10-31T04:32:34;12.30;;;5.22;;
1412;SDS011;701;52.526;13.408;2023-10-31T04:35:00;10.70;;;5.43;;
1412;SDS011;701;52.526;13.408;2023-10-31T04:37:26;10.25;;;4.93;;
1412;SDS011;701;52.526;13.408;2023-10-31T04:39:51;10.90;;;5.80;;
1412;SDS011;701;52.526;13.408;2023-10-31T04:42:17;11.77;;;5.28;;
1412;SDS011;701;52.526;13.408;2023-10-31T04:44:45;11.77;;;5.37;;
1412;SDS011;701;52.526;13.408;2023-10-31T04:47:11;9.50;;;5.22;;
1412;SDS011;701;52.526;13.408;2023-10-31T04:49:37;11.27;;;4.85;;
1412;SDS011;701;52.526;13.408;2023-10-31T04:52:02;13.50;;;4.93;;
1412;SDS011;701;52.526;13.408;2023-10-31T04:54:28;10.75;;;5.55;;
1412;SDS011;701;52.526;13.408;2023-10-31T04:56:54;11.07;;;5.37;;
1412;SDS011;701;52.526;13.408;2023-10-31T04:59:20;10.40;;;5.25;;
1412;SDS011;701;52.526;13.408;2023-10-31T05:01:49;14.87;;;5.67;;
1412;SDS011;701;52.526;13.408;2023-10-31T05:04:20;11.20;;;5.63;;
1412;SDS011;701;52.526;13.408;2023-10-31T05:06:46;11.60;;;5.78;;
1412;SDS011;701;52.526;13.408;2023-10-31T05:09:12;13.02;;;5.25;;
1412;SDS011;701;52.526;13.408;2023-10-31T05:11:39;12.10;;;5.27;;
1412;SDS011;701;52.526;13.408;2023-10-31T05:14:07;12.25;;;6.03;;
1412;SDS011;701;52.526;13.408;2023-10-31T05:16:41;10.77;;;6.20;;
1412;SDS011;701;52.526;13.408;2023-10-31T05:19:10;11.60;;;5.70;;
1412;SDS011;701;52.526;13.408;2023-10-31T05:21:36;11.50;;;6.10;;
1412;SDS011;701;52.526;13.408;2023-10-31T05:24:02;11.18;;;5.65;;
1412;SDS011;701;52.526;13.408;2023-10-31T05:26:28;10.85;;;5.75;;
1412;SDS011;701;52.526;13.408;2023-10-31T05:28:55;13.27;;;5.65;;
1412;SDS011;701;52.526;13.408;2023-10-31T05:31:22;10.90;;;5.70;;
1412;SDS011;701;52.526;13.408;2023-10-31T05:33:48;10.18;;;5.75;;
1412;SDS011;701;52.526;13.408;2023-10-31T05:36:17;11.57;;;5.38;;
1412;SDS011;701;52.526;13.408;2023-10-31T05:38:47;11.30;;;5.40;;
1412;SDS011;701;52.526;13.408;2023-10-31T05:41:13;11.33;;;4.90;;
1412;SDS011;701;52.526;13.408;2023-10-31T05:43:40;10.30;;;4.82;;
1412;SDS011;701;52.526;13.408;2023-10-31T05:46:06;8.68;;;4.35;;
1412;SDS011;701;52.526;13.408;2023-10-31T05:48:37;8.73;;;4.85;;
1412;SDS011;701;52.526;13.408;2023-10-31T05:51:04;8.20;;;4.45;;
1412;SDS011;701;52.526;13.408;2023-10-31T05:53:35;9.05;;;4.80;;
1412;SDS011;701;52.526;13.408;2023-10-31T05:56:01;7.63;;;3.97;;
1412;SDS011;701;52.526;13.408;2023-10-31T05:58:27;8.00;;;3.90;;
1412;SDS011;701;52.526;13.408;2023-10-31T06:00:53;7.95;;;3.90;;
1412;SDS011;701;52.526;13.408;2023-10-31T06:03:19;8.02;;;3.90;;
1412;SDS011;701;52.526;13.408;2023-10-31T06:05:45;7.57;;;3.77;;
1412;SDS011;701;52.526;13.408;2023-10-31T06:08:11;6.70;;;3.50;;
1412;SDS011;701;52.526;13.408;2023-10-31T06:10:36;7.45;;;3.35;;
1412;SDS011;701;52.526;13.408;2023-10-31T06:13:02;6.90;;;3.60;;
1412;SDS011;701;52.526;13.408;2023-10-31T06:15:28;8.15;;;4.43;;
1412;SDS011;701;52.526;13.408;2023-10-31T06:17:54;8.23;;;3.87;;
1412;SDS011;701;52.526;13.408;2023-10-31T06:20:19;7.65;;;3.80;;
1412;SDS011;701;52.526;13.408;2023-10-31T06:22:45;7.77;;;3.70;;
1412;SDS011;701;52.526;13.408;2023-10-31T06:25:11;10.40;;;4.80;;
1412;SDS011;701;52.526;13.408;2023-10-31T06:27:37;7.60;;;4.30;;
1412;SDS011;701;52.526;13.408;2023-10-31T06:30:06;8.07;;;4.30;;
1412;SDS011;701;52.526;13.408;2023-10-31T06:32:32;9.20;;;4.32;;
1412;SDS011;701;52.526;13.408;2023-10-31T06:34:58;10.43;;;4.30;;
1412;SDS011;701;52.526;13.408;2023-10-31T06:37:24;7.93;;;4.05;;
1412;SDS011;701;52.526;13.408;2023-10-31T06:39:49;11.63;;;4.60;;
1412;SDS011;701;52.526;13.408;2023-10-31T06:42:15;11.00;;;5.03;;
1412;SDS011;701;52.526;13.408;2023-10-31T06:44:41;9.98;;;4.25;;
1412;SDS011;701;52.526;13.408;2023-10-31T06:47:06;9.53;;;4.47;;
1412;SDS011;701;52.526;13.408;2023-10-31T06:49:32;7.90;;;4.20;;
1412;SDS011;701;52.526;13.408;2023-10-31T06:51:58;7.93;;;3.60;;
1412;SDS011;701;52.526;13.408;2023-10-31T06:54:23;6.35;;;3.50;;
1412;SDS011;701;52.526;13.408;2023-10-31T06:56:49;10.90;;;5.10;;
1412;SDS011;701;52.526;13.408;2023-10-31T06:59:15;7.43;;;3.80;;
1412;SDS011;701;52.526;13.408;2023-10-31T07:01:41;7.03;;;3.63;;
1412;SDS011;701;52.526;13.408;2023-10-31T07:04:06;6.78;;;3.33;;
1412;SDS011;701;52.526;13.408;2023-10-31T07:06:32;6.50;;;3.30;;
1412;SDS011;701;52.526;13.408;2023-10-31T07:08:58;6.72;;;3.15;;
1412;SDS011;701;52.526;13.408;2023-10-31T07:11:25;7.05;;;3.35;;
1412;SDS011;701;52.526;13.408;2023-10-31T07:13:51;7.57;;;2.93;;
1412;SDS011;701;52.526;13.408;2023-10-31T07:16:16;8.07;;;2.90;;
1412;SDS011;701;52.526;13.408;2023-10-31T07:18:42;6.70;;;2.80;;
1412;SDS011;701;52.526;13.408;2023-10-31T07:21:08;6.63;;;2.70;;
1412;SDS011;701;52.526;13.408;2023-10-31T07:23:34;5.63;;;2.20;;
1412;SDS011;701;52.526;13.408;2023-10-31T07:25:59;5.35;;;2.10;;
1412;SDS011;701;52.526;13.408;2023-10-31T07:28:25;6.33;;;2.17;;
1412;SDS011;701;52.526;13.408;2023-10-31T07:30:51;5.88;;;2.10;;
1412;SDS011;701;52.526;13.408;2023-10-31T07:33:16;5.37;;;1.33;;
1412;SDS011;701;52.526;13.408;2023-10-31T07:35:42;5.18;;;1.75;;
1412;SDS011;701;52.526;13.408;2023-10-31T07:38:08;4.53;;;1.60;;
1412;SDS011;701;52.526;13.408;2023-10-31T07:40:34;5.00;;;1.30;;
1412;SDS011;701;52.526;13.408;2023-10-31T07:43:00;5.47;;;1.73;;
1412;SDS011;701;52.526;13.408;2023-10-31T07:45:26;4.73;;;1.77;;
1412;SDS011;701;52.526;13.408;2023-10-31T07:47:52;5.00;;;1.40;;
1412;SDS011;701;52.526;13.408;2023-10-31T07:50:18;4.80;;;1.60;;
1412;SDS011;701;52.526;13.408;2023-10-31T07:52:43;6.10;;;1.60;;
1412;SDS011;701;52.526;13.408;2023-10-31T07:55:11;4.88;;;1.50;;
1412;SDS011;701;52.526;13.408;2023-10-31T07:57:37;6.43;;;1.50;;
1412;SDS011;701;52.526;13.408;2023-10-31T08:00:03;7.63;;;2.67;;
1412;SDS011;701;52.526;13.408;2023-10-31T08:02:37;21.52;;;9.40;;
1412;SDS011;701;52.526;13.408;2023-10-31T08:05:03;10.80;;;3.35;;
1412;SDS011;701;52.526;13.408;2023-10-31T08:07:29;4.73;;;1.83;;
1412;SDS011;701;52.526;13.408;2023-10-31T08:09:55;12.65;;;3.78;;
1412;SDS011;701;52.526;13.408;2023-10-31T08:12:21;6.72;;;1.33;;
1412;SDS011;701;52.526;13.408;2023-10-31T08:14:48;4.07;;;1.30;;
1412;SDS011;701;52.526;13.408;2023-10-31T08:17:13;3.78;;;1.20;;
1412;SDS011;701;52.526;13.408;2023-10-31T08:19:39;4.73;;;1.20;;
1412;SDS011;701;52.526;13.408;2023-10-31T08:22:05;4.90;;;1.37;;
1412;SDS011;701;52.526;13.408;2023-10-31T08:24:30;3.80;;;1.17;;
1412;SDS011;701;52.526;13.408;2023-10-31T08:26:56;3.63;;;0.90;;
1412;SDS011;701;52.526;13.408;2023-10-31T08:29:23;4.43;;;0.97;;
1412;SDS011;701;52.526;13.408;2023-10-31T08:31:48;7.10;;;1.30;;
1412;SDS011;701;52.526;13.408;2023-10-31T08:34:14;4.87;;;1.43;;
1412;SDS011;701;52.526;13.408;2023-10-31T08:36:40;4.80;;;1.13;;
1412;SDS011;701;52.526;13.408;2023-10-31T08:39:06;4.30;;;1.37;;
1412;SDS011;701;52.526;13.408;2023-10-31T08:41:31;4.97;;;1.10;;
1412;SDS011;701;52.526;13.408;2023-10-31T08:43:57;3.30;;;0.90;;
1412;SDS011;701;52.526;13.408;2023-10-31T08:46:24;3.87;;;1.03;;
1412;SDS011;701;52.526;13.408;2023-10-31T08:48:49;5.47;;;0.98;;
1412;SDS011;701;52.526;13.408;2023-10-31T08:51:15;4.33;;;1.33;;
1412;SDS011;701;52.526;13.408;2023-10-31T08:53:41;4.38;;;0.90;;
1412;SDS011;701;52.526;13.408;2023-10-31T08:56:07;6.03;;;1.40;;
1412;SDS011;701;52.526;13.408;2023-10-31T08:58:33;4.03;;;1.40;;
1412;SDS011;701;52.526;13.408;2023-10-31T09:00:59;5.20;;;1.77;;
1412;SDS011;701;52.526;13.408;2023-10-31T09:03:24;4.70;;;1.50;;
1412;SDS011;701;52.526;13.408;2023-10-31T09:05:50;7.20;;;2.38;;
1412;SDS011;701;52.526;13.408;2023-10-31T09:08:16;4.83;;;1.50;;
1412;SDS011;701;52.526;13.408;2023-10-31T09:10:41;7.43;;;1.20;;
1412;SDS011;701;52.526;13.408;2023-10-31T09:13:11;4.75;;;0.90;;
1412;SDS011;701;52.526;13.408;2023-10-31T09:15:36;3.83;;;1.07;;
1412;SDS011;701;52.526;13.408;2023-10-31T09:18:04;4.72;;;0.80;;
1412;SDS011;701;52.526;13.408;2023-10-31T09:20:29;3.38;;;0.93;;
1412;SDS011;701;52.526;13.408;2023-10-31T09:22:55;3.20;;;0.80;;
1412;SDS011;701;52.526;13.408;2023-10-31T09:25:21;3.92;;;0.63;;
1412;SDS011;701;52.526;13.408;2023-10-31T09:27:47;3.65;;;0.90;;
1412;SDS011;701;52.526;13.408;2023-10-31T09:30:12;4.80;;;0.70;;
1412;SDS011;701;52.526;13.408;2023-10-31T09:32:38;4.75;;;1.17;;
1412;SDS011;701;52.526;13.408;2023-10-31T09:35:04;2.97;;;0.60;;
1412;SDS011;701;52.526;13.408;2023-10-31T09:37:33;3.25;;;0.90;;
1412;SDS011;701;52.526;13.408;2023-10-31T09:39:58;4.03;;;0.83;;
1412;SDS011;701;52.526;13.408;2023-10-31T09:42:24;3.70;;;0.90;;
1412;SDS011;701;52.526;13.408;2023-10-31T09:44:50;3.22;;;0.73;;
1412;SDS011;701;52.526;13.408;2023-10-31T09:47:16;3.60;;;0.70;;
1412;SDS011;701;52.526;13.408;2023-10-31T09:49:42;3.55;;;0.75;;
1412;SDS011;701;52.526;13.408;2023-10-31T09:52:09;5.63;;;0.88;;
1412;SDS011;701;52.526;13.408;2023-10-31T09:54:35;3.73;;;1.00;;
1412;SDS011;701;52.526;13.408;2023-10-31T09:57:03;3.83;;;0.90;;
1412;SDS011;701;52.526;13.408;2023-10-31T09:59:29;3.42;;;0.98;;
1412;SDS011;701;52.526;13.408;2023-10-31T10:01:55;4.07;;;1.08;;
1412;SDS011;701;52.526;13.408;2023-10-31T10:04:21;4.93;;;1.37;;
1412;SDS011;701;52.526;13.408;2023-10-31T10:07:05;3.40;;;1.08;;
1412;SDS011;701;52.526;13.408;2023-10-31T10:09:31;4.18;;;1.30;;
1412;SDS011;701;52.526;13.408;2023-10-31T10:12:00;3.70;;;1.00;;
1412;SDS011;701;52.526;13.408;2023-10-31T10:14:27;7.70;;;1.77;;
1412;SDS011;701;52.526;13.408;2023-10-31T10:16:59;6.13;;;2.10;;
1412;SDS011;701;52.526;13.408;2023-10-31T10:19:25;4.45;;;1.48;;
1412;SDS011;701;52.526;13.408;2023-10-31T10:21:55;6.60;;;2.35;;
1412;SDS011;701;52.526;13.408;2023-10-31T10:24:22;4.00;;;1.40;;
1412;SDS011;701;52.526;13.408;2023-10-31T10:26:49;5.45;;;1.80;;
1412;SDS011;701;52.526;13.408;2023-10-31T10:29:16;4.28;;;1.75;;
1412;SDS011;701;52.526;13.408;2023-10-31T10:31:43;5.07;;;1.70;;
1412;SDS011;701;52.526;13.408;2023-10-31T10:34:10;3.95;;;1.30;;
1412;SDS011;701;52.526;13.408;2023-10-31T10:36:39;3.67;;;1.07;;
1412;SDS011;701;52.526;13.408;2023-10-31T10:39:04;4.70;;;1.20;;
1412;SDS011;701;52.526;13.408;2023-10-31T10:41:33;3.70;;;1.20;;
1412;SDS011;701;52.526;13.408;2023-10-31T10:44:07;4.37;;;1.20;;
1412;SDS011;701;52.526;13.408;2023-10-31T10:46:36;5.07;;;1.10;;
1412;SDS011;701;52.526;13.408;2023-10-31T10:49:04;4.72;;;1.33;;
1412;SDS011;701;52.526;13.408;2023-10-31T10:54:52;4.70;;;1.20;;
1412;SDS011;701;52.526;13.408;2023-10-31T10:57:26;4.17;;;1.40;;
1412;SDS011;701;52.526;13.408;2023-10-31T11:00:09;5.22;;;1.27;;
1412;SDS011;701;52.526;13.408;2023-10-31T11:02:39;3.90;;;1.30;;
1412;SDS011;701;52.526;13.408;2023-10-31T11:05:08;4.70;;;1.60;;
1412;SDS011;701;52.526;13.408;2023-10-31T11:07:35;5.60;;;1.60;;
1412;SDS011;701;52.526;13.408;2023-10-31T11:10:03;3.43;;;1.03;;
1412;SDS011;701;52.526;13.408;2023-10-31T11:12:30;5.45;;;1.30;;
1412;SDS011;701;52.526;13.408;2023-10-31T11:14:57;4.32;;;1.27;;
1412;SDS011;701;52.526;13.408;2023-10-31T11:17:29;3.50;;;1.20;;
1412;SDS011;701;52.526;13.408;2023-10-31T11:19:57;4.68;;;1.30;;
1412;SDS011;701;52.526;13.408;2023-10-31T11:22:24;4.53;;;1.57;;
1412;SDS011;701;52.526;13.408;2023-10-31T11:24:50;5.38;;;1.27;;
1412;SDS011;701;52.526;13.408;2023-10-31T11:27:16;4.22;;;1.75;;
1412;SDS011;701;52.526;13.408;2023-10-31T11:29:43;8.65;;;1.50;;
1412;SDS011;701;52.526;13.408;2023-10-31T11:32:09;5.90;;;1.50;;
1412;SDS011;701;52.526;13.408;2023-10-31T11:34:39;8.38;;;1.70;;
1412;SDS011;701;52.526;13.408;2023-10-31T11:37:26;4.38;;;1.63;;
1412;SDS011;701;52.526;13.408;2023-10-31T11:42:51;3.90;;;1.40;;
1412;SDS011;701;52.526;13.408;2023-10-31T11:45:27;4.73;;;1.53;;
1412;SDS011;701;52.526;13.408;2023-10-31T11:48:01;3.85;;;1.30;;
1412;SDS011;701;52.526;13.408;2023-10-31T11:50:27;6.13;;;1.50;;
1412;SDS011;701;52.526;13.408;2023-10-31T11:55:32;5.55;;;1.65;;
1412;SDS011;701;52.526;13.408;2023-10-31T12:00:43;4.45;;;1.02;;
1412;SDS011;701;52.526;13.408;2023-10-31T12:03:15;3.70;;;1.17;;
1412;SDS011;701;52.526;13.408;2023-10-31T12:05:55;3.97;;;1.20;;
1412;SDS011;701;52.526;13.408;2023-10-31T12:08:25;3.67;;;1.17;;
1412;SDS011;701;52.526;13.408;2023-10-31T12:11:03;4.40;;;1.10;;
1412;SDS011;701;52.526;13.408;2023-10-31T12:13:29;7.28;;;2.47;;
1412;SDS011;701;52.526;13.408;2023-10-31T12:15:55;3.93;;;1.23;;
1412;SDS011;701;52.526;13.408;2023-10-31T12:18:21;5.55;;;1.30;;
1412;SDS011;701;52.526;13.408;2023-10-31T12:20:50;4.68;;;1.73;;
1412;SDS011;701;52.526;13.408;2023-10-31T12:23:19;7.60;;;3.03;;
1412;SDS011;701;52.526;13.408;2023-10-31T12:25:49;6.70;;;2.50;;
1412;SDS011;701;52.526;13.408;2023-10-31T12:28:22;5.57;;;1.30;;
1412;SDS011;701;52.526;13.408;2023-10-31T12:30:50;5.60;;;0.93;;
1412;SDS011;701;52.526;13.408;2023-10-31T12:33:19;4.68;;;1.70;;
1412;SDS011;701;52.526;13.408;2023-10-31T12:35:47;3.60;;;1.00;;
1412;SDS011;701;52.526;13.408;2023-10-31T12:38:14;4.33;;;1.10;;
1412;SDS011;701;52.526;13.408;2023-10-31T12:40:41;5.80;;;2.08;;
1412;SDS011;701;52.526;13.408;2023-10-31T12:43:09;14.13;;;2.65;;
1412;SDS011;701;52.526;13.408;2023-10-31T12:45:35;5.50;;;0.90;;
1412;SDS011;701;52.526;13.408;2023-10-31T12:48:05;4.40;;;1.03;;
1412;SDS011;701;52.526;13.408;2023-10-31T12:50:33;3.72;;;1.00;;
1412;SDS011;701;52.526;13.408;2023-10-31T12:53:01;3.40;;;1.02;;
1412;SDS011;701;52.526;13.408;2023-10-31T12:55:28;3.83;;;1.00;;
1412;SDS011;701;52.526;13.408;2023-10-31T12:57:56;3.55;;;0.70;;
1412;SDS011;701;52.526;13.408;2023-10-31T13:00:25;4.17;;;0.93;;
1412;SDS011;701;52.526;13.408;2023-10-31T13:03:00;6.32;;;1.00;;
1412;SDS011;701;52.526;13.408;2023-10-31T13:05:28;3.35;;;0.80;;
1412;SDS011;701;52.526;13.408;2023-10-31T13:07:55;3.38;;;0.82;;
1412;SDS011;701;52.526;13.408;2023-10-31T13:10:22;4.25;;;0.80;;
1412;SDS011;701;52.526;13.408;2023-10-31T13:12:49;3.67;;;0.70;;
1412;SDS011;701;52.526;13.408;2023-10-31T13:15:16;3.85;;;0.73;;
1412;SDS011;701;52.526;13.408;2023-10-31T13:17:45;3.90;;;1.20;;
1412;SDS011;701;52.526;13.408;2023-10-31T13:20:12;4.43;;;0.80;;
1412;SDS011;701;52.526;13.408;2023-10-31T13:22:40;4.20;;;0.70;;
1412;SDS011;701;52.526;13.408;2023-10-31T13:25:07;3.50;;;0.90;;
1412;SDS011;701;52.526;13.408;2023-10-31T13:27:37;5.10;;;0.90;;
1412;SDS011;701;52.526;13.408;2023-10-31T13:30:06;3.85;;;0.90;;
1412;SDS011;701;52.526;13.408;2023-10-31T13:32:33;3.65;;;0.90;;
1412;SDS011;701;52.526;13.408;2023-10-31T13:35:00;2.97;;;0.60;;
1412;SDS011;701;52.526;13.408;2023-10-31T13:37:26;3.43;;;0.70;;
1412;SDS011;701;52.526;13.408;2023-10-31T13:39:52;3.35;;;0.70;;
1412;SDS011;701;52.526;13.408;2023-10-31T13:42:17;3.40;;;0.70;;
1412;SDS011;701;52.526;13.408;2023-10-31T13:44:43;3.60;;;0.60;;
1412;SDS011;701;52.526;13.408;2023-10-31T13:47:09;3.20;;;0.93;;
1412;SDS011;701;52.526;13.408;2023-10-31T13:49:36;4.47;;;0.80;;
1412;SDS011;701;52.526;13.408;2023-10-31T13:52:05;3.60;;;0.90;;
1412;SDS011;701;52.526;13.408;2023-10-31T13:54:31;3.65;;;0.80;;
1412;SDS011;701;52.526;13.408;2023-10-31T13:56:58;3.20;;;0.70;;
1412;SDS011;701;52.526;13.408;2023-10-31T13:59:24;3.30;;;0.70;;
1412;SDS011;701;52.526;13.408;2023-10-31T14:01:50;3.67;;;0.82;;
1412;SDS011;701;52.526;13.408;2023-10-31T14:04:16;3.93;;;0.80;;
1412;SDS011;701;52.526;13.408;2023-10-31T14:06:43;3.97;;;0.90;;
1412;SDS011;701;52.526;13.408;2023-10-31T14:09:09;2.95;;;0.73;;
1412;SDS011;701;52.526;13.408;2023-10-31T14:11:37;3.78;;;1.08;;
1412;SDS011;701;52.526;13.408;2023-10-31T14:14:04;4.53;;;1.23;;
1412;SDS011;701;52.526;13.408;2023-10-31T14:16:39;4.33;;;0.90;;
1412;SDS011;701;52.526;13.408;2023-10-31T14:19:05;4.70;;;1.48;;
1412;SDS011;701;52.526;13.408;2023-10-31T14:21:32;3.58;;;0.82;;
1412;SDS011;701;52.526;13.408;2023-10-31T14:23:59;5.50;;;0.90;;
1412;SDS011;701;52.526;13.408;2023-10-31T14:26:26;5.13;;;1.02;;
1412;SDS011;701;52.526;13.408;2023-10-31T14:28:52;3.27;;;0.70;;
1412;SDS011;701;52.526;13.408;2023-10-31T14:31:18;12.02;;;4.93;;
1412;SDS011;701;52.526;13.408;2023-10-31T14:33:45;5.47;;;1.65;;
1412;SDS011;701;52.526;13.408;2023-10-31T14:36:11;4.78;;;0.88;;
1412;SDS011;701;52.526;13.408;2023-10-31T14:38:38;3.72;;;0.80;;
1412;SDS011;701;52.526;13.408;2023-10-31T14:41:04;4.80;;;1.00;;
1412;SDS011;701;52.526;13.408;2023-10-31T14:43:30;4.60;;;0.80;;
1412;SDS011;701;52.526;13.408;2023-10-31T14:45:56;3.60;;;1.00;;
1412;SDS011;701;52.526;13.408;2023-10-31T14:48:23;3.35;;;0.70;;
1412;SDS011;701;52.526;13.408;2023-10-31T14:50:48;3.47;;;0.80;;
1412;SDS011;701;52.526;13.408;2023-10-31T14:53:15;5.07;;;0.90;;
1412;SDS011;701;52.526;13.408;2023-10-31T14:55:41;3.92;;;0.98;;
1412;SDS011;701;52.526;13.408;2023-10-31T14:58:07;5.57;;;0.93;;
1412;SDS011;701;52.526;13.408;2023-10-31T15:00:35;4.50;;;0.75;;
1412;SDS011;701;52.526;13.408;2023-10-31T15:03:02;11.63;;;0.93;;
1412;SDS011;701;52.526;13.408;2023-10-31T15:05:29;6.22;;;0.90;;
1412;SDS011;701;52.526;13.408;2023-10-31T15:07:55;5.93;;;0.80;;
1412;SDS011;701;52.526;13.408;2023-10-31T15:10:22;3.53;;;0.90;;
1412;SDS011;701;52.526;13.408;2023-10-31T15:12:49;4.03;;;0.70;;
1412;SDS011;701;52.526;13.408;2023-10-31T15:15:18;4.55;;;1.00;;
1412;SDS011;701;52.526;13.408;2023-10-31T15:17:44;4.15;;;1.20;;
1412;SDS011;701;52.526;13.408;2023-10-31T15:20:10;3.05;;;0.80;;